Time;durP1;ratioP1;P1;durP2;ratioP2;P2;SDS_P1;SDS_P2;PMS_P1;PMS_P2;Temp;Humidity;BMP_temperature;BMP_pressure;BME280_temperature;BME280_humidity;BME280_pressure;Samples;Min_cycle;Max_cycle;Signal;HPM_P1;HPM_P2
2021/06/05 14:47:03;;;;;;;;;;;;;;;18.03;57.72;96884.22;5139937;27;20382;-66
2021/06/05 14:49:29;;;;;;;;;;;;;;;17.90;57.82;96885.09;5123276;27;19951;-64
2021/06/05 14:51:56;;;;;;;;;;;;;;;17.86;58.10;96895.25;5121429;27;20051;-65
2021/06/05 14:54:22;;;;;;;;;;;;;;;17.72;58.74;96884.97;5125011;27;20248;-65
2021/06/05 14:56:50;;;;;;;;;;;;;;;17.64;58.96;96880.72;5120226;27;19943;-65
2021/06/05 14:59:16;;;;;;;;;;;;;;;17.62;58.93;96890.66;5125471;27;19932;-65
2021/06/05 15:01:43;;;;;;;;;;;;;;;17.59;58.86;96881.34;5123019;27;19927;-65
2021/06/05 15:04:10;;;;;;;;;;;;;;;17.60;59.04;96876.88;5123066;27;19928;-64
2021/06/05 15:06:36;;;;;;;;;;;;;;;17.95;58.18;96874.75;5121754;27;19931;-73
2021/06/05 15:09:04;;;;;;;;;;;;;;;18.29;57.08;96876.19;5118842;27;19931;-70
2021/06/05 15:11:31;;;;;;;;;;;;;;;18.48;56.75;96882.34;5122417;27;19928;-71
2021/06/05 15:13:58;;;;;;;;;;;;;;;18.31;57.05;96874.13;5119713;27;19928;-68
2021/06/05 15:16:24;;;;;;;;;;;;;;;18.02;57.93;96882.63;5105101;27;19943;-68
2021/06/05 15:18:51;;;;;;;;;;;;;;;17.96;58.05;96886.88;5101573;27;19970;-68
2021/06/05 15:21:17;;;;;;;;;;;;;;;17.92;58.15;96893.59;5102745;27;19949;-68
2021/06/05 15:23:44;;;;;;;;;;;;;;;17.93;58.30;96892.59;5103566;27;20450;-68
2021/06/05 15:26:10;;;;;;;;;;;;;;;17.92;58.21;96898.06;5084388;27;19923;-68
2021/06/05 15:28:37;;;;;;;;;;;;;;;17.88;58.25;96901.09;5095128;27;19924;-68
2021/06/05 15:31:04;;;;;;;;;;;;;;;17.89;58.46;96894.03;5085187;28;21246;-69
2021/06/05 15:33:31;;;;;;;;;;;;;;;17.85;58.55;96898.88;5098385;28;19966;-70
2021/06/05 15:35:58;;;;;;;;;;;;;;;17.87;58.51;96910.03;5086604;28;19939;-69
2021/06/05 15:38:26;;;;;;;;;;;;;;;17.87;58.43;96906.59;5101856;28;19928;-63
2021/06/05 15:56:21;;;;;;;;;;;;;;;18.09;58.03;96894.72;5050248;28;19943;-63
2021/06/05 15:58:49;;;;;;;;;;;;;;;18.03;57.99;96895.59;5048196;28;19933;-64
2021/06/05 16:01:16;;;;;;;;;;;;;;;18.02;58.13;96891.31;5048203;28;20328;-63
2021/06/05 16:03:43;;;;;;;;;;;;;;;17.84;58.39;96889.38;5047072;28;19933;-63
2021/06/05 16:06:10;;;;;;;;;;;;;;;17.92;58.19;96898.06;5044293;28;19944;-63
2021/06/05 16:08:36;;;;;;;;;;;;;;;17.86;58.55;96890.00;5051297;28;19940;-63
2021/06/05 16:11:04;;;;;;;;;;;;;;;17.77;58.83;96877.22;5049433;28;20353;-61
2021/06/05 16:13:31;;;;;;;;;;;;;;;17.72;58.91;96885.75;5051696;28;19928;-63
2021/06/05 16:16:00;;;;;;;;;;;;;;;17.68;59.02;96877.47;5050863;28;19948;-68
2021/06/05 16:18:29;;;;;;;;;;;;;;;17.67;58.98;96896.91;5050212;28;19979;-62
2021/06/05 16:20:56;;;;;;;;;;;;;;;17.68;59.00;96881.91;5047656;28;19925;-63
2021/06/05 16:23:24;;;;;;;;;;;;;;;17.67;59.00;96869.75;5049734;28;19939;-63
2021/06/05 16:25:51;;;;;;;;;;;;;;;17.69;58.77;96886.16;5048395;28;19939;-64
2021/06/05 16:28:17;;;;;;;;;;;;;;;17.75;58.55;96882.69;5053064;28;19924;-61
2021/06/05 16:30:43;;;;;;;;;;;;;;;17.69;58.85;96889.63;5050226;28;19925;-62
2021/06/05 16:33:11;;;;;;;;;;;;;;;17.66;58.80;96897.13;5047942;28;19933;-64
2021/06/05 16:35:40;;;;;;;;;;;;;;;17.65;59.06;96904.22;5051304;28;19933;-64
2021/06/05 16:38:07;;;;;;;;;;;;;;;17.65;59.11;96908.66;5051086;28;19940;-65
2021/06/05 16:40:36;;;;;;;;;;;;;;;17.65;59.04;96917.38;5051262;28;20265;-66
2021/06/05 16:43:04;;;;;;;;;;;;;;;17.64;59.22;96914.94;5049488;28;20182;-66
2021/06/05 16:45:30;;;;;;;;;;;;;;;17.63;59.05;96922.03;5051547;28;19997;-66
2021/06/05 16:47:57;;;;;;;;;;;;;;;17.62;59.04;96920.41;5050411;28;19994;-62
2021/06/05 16:50:29;;;;;;;;;;;;;;;17.65;58.96;96924.44;5050833;28;19932;-62
2021/06/05 16:52:56;;;;;;;;;;;;;;;17.62;59.11;96920.41;5053052;28;19933;-62
2021/06/05 16:55:24;;;;;;;;;;;;;;;17.67;58.88;96933.78;5064578;28;20380;-64
2021/06/05 16:57:52;;;;;;;;;;;;;;;17.67;58.80;96925.88;5054448;28;20249;-63
2021/06/05 17:00:23;;;;;;;;;;;;;;;17.65;58.97;96938.44;5048242;28;19932;-64
2021/06/05 17:02:50;;;;;;;;;;;;;;;17.63;59.12;96932.56;5048821;28;19936;-63
2021/06/05 17:05:16;;;;;;;;;;;;;;;17.62;59.08;96943.28;5053806;28;19932;-63
2021/06/05 17:07:43;;;;;;;;;;;;;;;17.62;59.19;96945.94;5036520;28;20028;-63
2021/06/05 17:10:13;;;;;;;;;;;;;;;17.60;59.00;96964.56;5034589;28;20483;-63
2021/06/05 17:12:40;;;;;;;;;;;;;;;17.61;59.08;96971.44;5044764;28;19929;-63
2021/06/05 17:15:08;;;;;;;;;;;;;;;17.60;59.10;96972.44;5031528;28;19936;-63
2021/06/05 17:17:35;;;;;;;;;;;;;;;17.59;59.14;96968.22;5042335;28;19935;-63
2021/06/05 17:20:01;;;;;;;;;;;;;;;17.59;59.23;96978.75;5039673;28;20666;-64
2021/06/05 17:22:28;;;;;;;;;;;;;;;17.59;59.01;96978.75;5050163;28;19932;-65
2021/06/05 17:24:55;;;;;;;;;;;;;;;17.61;59.13;96989.88;5037849;28;20817;-61
2021/06/05 17:27:21;;;;;;;;;;;;;;;17.61;59.17;96994.31;5043230;28;20300;-61
2021/06/05 17:29:48;;;;;;;;;;;;;;;17.60;59.15;96987.44;5043656;28;19979;-61
2021/06/05 17:32:15;;;;;;;;;;;;;;;17.60;59.10;96990.06;5043141;28;19925;-61
2021/06/05 17:34:42;;;;;;;;;;;;;;;17.60;59.19;96998.75;5041501;28;20401;-61
2021/06/05 17:37:08;;;;;;;;;;;;;;;17.59;59.18;96991.91;5045341;28;19936;-63
2021/06/05 17:39:35;;;;;;;;;;;;;;;17.58;59.07;96995.53;5038993;28;19955;-63
2021/06/05 17:42:03;;;;;;;;;;;;;;;17.59;59.23;97006.84;5038522;28;19925;-63
2021/06/05 17:44:29;;;;;;;;;;;;;;;17.59;59.25;97009.50;5038729;28;19925;-63
2021/06/05 17:46:56;;;;;;;;;;;;;;;17.57;59.18;97014.97;5041552;28;19936;-62
2021/06/05 17:49:22;;;;;;;;;;;;;;;17.57;59.29;97022.03;5043577;28;19952;-62
2021/06/05 17:51:49;;;;;;;;;;;;;;;17.57;59.32;97024.69;5038926;28;19933;-62
2021/06/05 17:54:18;;;;;;;;;;;;;;;17.58;59.26;97042.91;5038666;28;19930;-63
2021/06/05 17:56:44;;;;;;;;;;;;;;;17.57;59.32;97051.84;5040145;28;19936;-63
2021/06/05 17:59:10;;;;;;;;;;;;;;;17.55;59.26;97061.75;5041289;28;19940;-63
2021/06/05 18:01:37;;;;;;;;;;;;;;;17.55;59.23;97069.66;5039815;28;19925;-63
2021/06/05 18:04:10;;;;;;;;;;;;;;;17.54;59.29;97080.38;5036592;28;19933;-63
2021/06/05 18:06:37;;;;;;;;;;;;;;;17.54;59.36;97078.53;5041250;28;20435;-63
2021/06/05 18:09:04;;;;;;;;;;;;;;;17.55;59.29;97079.38;5041543;28;19990;-63
2021/06/05 18:11:34;;;;;;;;;;;;;;;17.55;59.35;97097.81;5042019;28;20679;-62
2021/06/05 18:14:02;;;;;;;;;;;;;;;17.54;59.32;97099.59;5037140;28;19928;-63
2021/06/05 18:16:30;;;;;;;;;;;;;;;17.55;59.12;97103.88;5039222;28;19929;-63
2021/06/05 18:18:57;;;;;;;;;;;;;;;17.58;59.27;97107.91;5040319;28;19929;-63
2021/06/05 18:21:26;;;;;;;;;;;;;;;17.55;59.34;97106.50;5037735;28;19931;-63
2021/06/05 18:23:53;;;;;;;;;;;;;;;17.56;59.44;97116.00;5040701;28;19933;-63
2021/06/05 18:26:20;;;;;;;;;;;;;;;17.56;59.37;97118.63;5039263;28;20378;-63
2021/06/05 18:28:46;;;;;;;;;;;;;;;17.56;59.43;97123.91;5040633;28;19929;-63
2021/06/05 18:31:13;;;;;;;;;;;;;;;17.51;59.31;97105.28;5038653;28;19933;-63
2021/06/05 18:33:45;;;;;;;;;;;;;;;17.57;59.28;97130.81;5038860;28;20624;-62
2021/06/05 18:36:13;;;;;;;;;;;;;;;17.56;59.30;97126.53;5036994;28;20392;-63
2021/06/05 18:38:40;;;;;;;;;;;;;;;17.57;59.26;97138.69;5038258;28;19928;-63
2021/06/05 18:41:07;;;;;;;;;;;;;;;17.56;59.31;97125.72;5039054;28;19932;-63
2021/06/05 18:43:36;;;;;;;;;;;;;;;17.57;59.29;97130.81;5035083;28;20560;-61
2021/06/05 18:46:03;;;;;;;;;;;;;;;17.56;59.22;97129.16;5041833;28;19932;-63
2021/06/05 18:48:30;;;;;;;;;;;;;;;17.56;59.36;97134.44;5035664;28;20393;-63
2021/06/05 18:51:01;;;;;;;;;;;;;;;17.56;59.28;97134.44;5039547;28;19929;-63
2021/06/05 18:53:29;;;;;;;;;;;;;;;17.56;59.45;97126.53;5041347;28;19936;-63
2021/06/05 18:55:56;;;;;;;;;;;;;;;17.66;58.83;97128.78;5038790;28;19948;-63
2021/06/05 18:58:29;;;;;;;;;;;;;;;17.70;58.61;97125.53;5036806;28;19933;-63
2021/06/05 19:00:57;;;;;;;;;;;;;;;17.76;58.37;97136.25;5036685;28;20299;-63
2021/06/05 19:03:23;;;;;;;;;;;;;;;17.78;58.27;97136.84;5038668;28;19933;-63
2021/06/05 19:05:50;;;;;;;;;;;;;;;17.76;58.69;97139.72;5031636;28;19933;-63
2021/06/05 19:08:18;;;;;;;;;;;;;;;17.77;58.54;97151.84;5036097;28;20360;-63
2021/06/05 19:10:44;;;;;;;;;;;;;;;17.78;58.29;97150.84;5037644;28;20590;-63
2021/06/05 19:13:11;;;;;;;;;;;;;;;17.78;58.37;97157.94;5041469;28;20472;-63
2021/06/05 19:15:39;;;;;;;;;;;;;;;17.78;58.25;97161.38;5036477;28;20482;-63
2021/06/05 19:18:11;;;;;;;;;;;;;;;17.79;58.17;97175.34;5045992;28;20361;-63
2021/06/05 19:20:37;;;;;;;;;;;;;;;17.78;58.24;97173.72;5038730;28;20297;-63
2021/06/05 19:23:04;;;;;;;;;;;;;;;17.78;58.45;97187.72;5032459;28;20386;-63
2021/06/05 19:25:33;;;;;;;;;;;;;;;17.79;58.04;97193.78;5041574;28;19928;-63
2021/06/05 19:28:00;;;;;;;;;;;;;;;17.80;58.33;97190.13;5038348;28;19933;-63
2021/06/05 19:30:29;;;;;;;;;;;;;;;17.79;58.29;97197.22;5044023;28;19955;-63
2021/06/05 19:32:56;;;;;;;;;;;;;;;17.80;58.26;97195.41;5037741;28;20321;-63
2021/06/05 19:35:24;;;;;;;;;;;;;;;17.79;58.15;97193.78;5037731;28;20278;-63
2021/06/05 19:37:51;;;;;;;;;;;;;;;17.79;58.36;97201.69;5036437;28;19925;-63
2021/06/05 19:40:18;;;;;;;;;;;;;;;17.79;58.13;97212.22;5037853;28;19929;-63
2021/06/05 19:42:45;;;;;;;;;;;;;;;17.79;58.29;97212.22;5035052;28;19937;-61
2021/06/05 19:45:12;;;;;;;;;;;;;;;17.79;58.28;97215.66;5036495;28;20393;-62
2021/06/05 19:47:38;;;;;;;;;;;;;;;17.79;58.40;97220.13;5035528;28;19936;-62
2021/06/05 19:50:06;;;;;;;;;;;;;;;17.79;58.49;97214.84;5037446;28;19929;-62
2021/06/05 19:52:33;;;;;;;;;;;;;;;17.78;58.42;97219.31;5041329;28;20301;-62
2021/06/05 19:55:02;;;;;;;;;;;;;;;17.78;58.33;97215.84;5031686;28;20317;-61
2021/06/05 19:57:28;;;;;;;;;;;;;;;17.79;58.31;97223.56;5041231;28;19932;-62
2021/06/05 19:59:55;;;;;;;;;;;;;;;17.80;58.37;97221.72;5038694;28;19929;-61
2021/06/05 20:02:21;;;;;;;;;;;;;;;17.79;58.26;97223.56;5032891;28;19929;-62
2021/06/05 20:04:48;;;;;;;;;;;;;;;17.80;58.21;97221.72;5038059;28;20008;-62
2021/06/05 20:07:14;;;;;;;;;;;;;;;17.79;58.28;97226.19;5038680;28;19929;-62
2021/06/05 20:09:41;;;;;;;;;;;;;;;17.80;58.12;97227.00;5043060;28;20641;-62
2021/06/05 20:12:08;;;;;;;;;;;;;;;17.80;58.01;97235.72;5037658;28;19940;-62
2021/06/05 20:14:37;;;;;;;;;;;;;;;17.81;58.22;97233.91;5041265;28;19940;-62
2021/06/05 20:17:05;;;;;;;;;;;;;;;17.81;58.25;97239.97;5036766;28;19937;-62
2021/06/05 20:19:31;;;;;;;;;;;;;;;17.81;58.19;97236.53;5035495;28;20408;-62
2021/06/05 20:22:00;;;;;;;;;;;;;;;17.80;58.19;97237.53;5040573;28;19929;-62
2021/06/05 20:24:28;;;;;;;;;;;;;;;17.80;58.33;97238.38;5036422;28;19929;-62
2021/06/05 20:26:54;;;;;;;;;;;;;;;17.80;58.09;97233.09;5040086;28;19943;-62
2021/06/05 20:29:21;;;;;;;;;;;;;;;17.81;58.04;97239.97;5038566;28;19929;-62
2021/06/05 20:31:49;;;;;;;;;;;;;;;17.79;58.08;97236.72;5037102;28;19929;-62
2021/06/05 20:34:16;;;;;;;;;;;;;;;17.80;58.14;97248.91;5036861;28;19932;-62
2021/06/05 20:36:42;;;;;;;;;;;;;;;17.82;57.93;97256.56;5034231;28;19936;-62
2021/06/05 20:39:11;;;;;;;;;;;;;;;17.80;58.18;97255.97;5034481;28;19936;-62
2021/06/05 20:41:38;;;;;;;;;;;;;;;17.80;58.14;97248.91;5034014;28;19925;-62
2021/06/05 20:44:06;;;;;;;;;;;;;;;17.81;58.25;97254.97;5037893;28;19933;-62
2021/06/05 20:46:34;;;;;;;;;;;;;;;17.80;58.27;97256.78;5038897;28;19929;-62
2021/06/05 20:49:04;;;;;;;;;;;;;;;17.80;58.26;97250.69;5036143;28;20297;-62
2021/06/05 20:51:32;;;;;;;;;;;;;;;17.80;58.38;97256.78;5036053;28;19932;-62
2021/06/05 20:53:59;;;;;;;;;;;;;;;17.79;58.08;97260.44;5036556;28;19956;-62
2021/06/05 20:56:25;;;;;;;;;;;;;;;17.80;58.28;97266.50;5031131;28;21782;-62
2021/06/05 20:58:52;;;;;;;;;;;;;;;17.80;58.21;97259.44;5044765;28;19986;-61
2021/06/05 21:01:23;;;;;;;;;;;;;;;17.80;58.18;97261.22;5038855;28;19940;-62
2021/06/05 21:03:49;;;;;;;;;;;;;;;17.79;58.36;97260.44;5040393;28;19936;-62
2021/06/05 21:06:17;;;;;;;;;;;;;;;17.79;58.11;97257.78;5036375;28;19929;-62
2021/06/05 21:08:46;;;;;;;;;;;;;;;17.79;58.15;97259.63;5038254;28;19933;-62
2021/06/05 21:11:13;;;;;;;;;;;;;;;17.79;58.35;97264.88;5038463;28;19944;-62
2021/06/05 21:13:39;;;;;;;;;;;;;;;17.79;58.19;97263.06;5036570;28;20021;-62
2021/06/05 21:16:08;;;;;;;;;;;;;;;17.79;58.40;97260.44;5036875;28;19933;-62
2021/06/05 21:18:35;;;;;;;;;;;;;;;17.79;58.34;97257.78;5035149;28;19929;-62
2021/06/05 21:21:02;;;;;;;;;;;;;;;17.80;58.20;97258.59;5037127;28;19929;-62
2021/06/05 21:23:28;;;;;;;;;;;;;;;17.79;58.28;97255.16;5035638;28;19925;-62
2021/06/05 21:25:56;;;;;;;;;;;;;;;17.78;58.35;97258.81;5035834;28;19931;-62
2021/06/05 21:28:23;;;;;;;;;;;;;;;17.78;58.15;97260.63;5035021;28;19932;-61
2021/06/05 21:30:52;;;;;;;;;;;;;;;17.78;58.25;97253.56;5039929;28;19932;-62
2021/06/05 21:33:20;;;;;;;;;;;;;;;17.80;58.23;97253.31;5038524;28;19928;-62
2021/06/05 21:35:48;;;;;;;;;;;;;;;17.80;58.31;97258.59;5038214;28;20055;-62
2021/06/05 21:38:16;;;;;;;;;;;;;;;17.78;58.21;97261.44;5037871;28;20297;-62
2021/06/05 21:40:45;;;;;;;;;;;;;;;17.79;58.24;97259.63;5038709;28;19925;-62
2021/06/05 21:43:13;;;;;;;;;;;;;;;17.78;58.20;97255.34;5037375;28;19933;-61
2021/06/05 21:45:39;;;;;;;;;;;;;;;17.79;57.91;97257.78;5039552;28;19929;-62
2021/06/05 21:48:06;;;;;;;;;;;;;;;17.77;58.28;97256.38;5038461;28;20037;-62
2021/06/05 21:50:33;;;;;;;;;;;;;;;17.78;58.22;97250.09;5032472;28;19933;-62
2021/06/05 21:53:00;;;;;;;;;;;;;;;17.77;58.25;97251.09;5035082;28;19933;-62
2021/06/05 21:55:27;;;;;;;;;;;;;;;17.78;58.38;97250.09;5040426;28;19971;-62
2021/06/05 21:57:55;;;;;;;;;;;;;;;17.76;58.40;97247.66;5039894;28;19925;-62
2021/06/05 22:00:31;;;;;;;;;;;;;;;17.77;58.23;97244.00;5040831;28;19924;-62
2021/06/05 22:02:58;;;;;;;;;;;;;;;17.78;58.42;97244.81;5038233;28;19952;-62
2021/06/05 22:05:24;;;;;;;;;;;;;;;17.77;58.48;97248.47;5038887;28;20415;-62
2021/06/05 22:07:51;;;;;;;;;;;;;;;17.76;58.17;97244.22;5039319;28;19925;-62
2021/06/05 22:10:18;;;;;;;;;;;;;;;17.76;58.24;97241.56;5044131;28;19925;-62
2021/06/05 22:12:44;;;;;;;;;;;;;;;17.77;58.33;97243.22;5037726;28;19925;-62
2021/06/05 22:15:11;;;;;;;;;;;;;;;17.76;58.39;97244.22;5040052;28;19936;-62
2021/06/05 22:17:38;;;;;;;;;;;;;;;17.76;58.39;97242.41;5037653;28;19932;-62
2021/06/05 22:20:05;;;;;;;;;;;;;;;17.76;58.33;97242.41;5039515;28;19995;-61
2021/06/05 22:22:33;;;;;;;;;;;;;;;17.76;58.16;97244.22;5040675;28;19928;-62
2021/06/05 22:25:02;;;;;;;;;;;;;;;17.75;58.27;97235.50;5042337;28;20002;-62
2021/06/05 22:27:30;;;;;;;;;;;;;;;17.74;58.33;97233.91;5041862;28;19932;-62
2021/06/05 22:29:57;;;;;;;;;;;;;;;17.75;58.27;97238.13;5040253;28;19929;-62
2021/06/05 22:32:24;;;;;;;;;;;;;;;17.75;58.53;97234.69;5044055;28;19956;-62
2021/06/05 22:34:51;;;;;;;;;;;;;;;17.75;58.42;97240.75;5041727;28;19925;-62
2021/06/05 22:37:17;;;;;;;;;;;;;;;17.75;58.26;97237.34;5042147;28;20403;-62
2021/06/05 22:39:44;;;;;;;;;;;;;;;17.74;58.44;97241.78;5034314;28;19932;-62
2021/06/05 22:42:10;;;;;;;;;;;;;;;17.75;58.23;97234.69;5034142;28;19975;-62
2021/06/05 22:44:37;;;;;;;;;;;;;;;17.75;58.49;97232.88;5039411;28;19925;-62
2021/06/05 22:47:03;;;;;;;;;;;;;;;17.75;58.57;97224.16;5037073;28;20469;-62
2021/06/05 22:49:29;;;;;;;;;;;;;;;17.75;58.53;97226.81;5032762;28;20362;-62
2021/06/05 22:51:56;;;;;;;;;;;;;;;17.74;58.35;97228.63;5033330;28;19936;-62
2021/06/05 22:54:24;;;;;;;;;;;;;;;17.75;58.28;97224.16;5034312;28;19932;-62
2021/06/05 22:56:51;;;;;;;;;;;;;;;17.73;58.47;97224.34;5036315;28;19939;-62
2021/06/05 22:59:17;;;;;;;;;;;;;;;17.74;58.56;97218.09;5043744;28;19987;-62
2021/06/05 23:01:45;;;;;;;;;;;;;;;17.75;58.34;97222.34;5032089;28;19936;-62
2021/06/05 23:04:12;;;;;;;;;;;;;;;17.73;58.34;97215.66;5038296;28;20054;-62
2021/06/05 23:06:42;;;;;;;;;;;;;;;17.74;58.38;97207.56;5039456;28;20020;-62
2021/06/05 23:09:10;;;;;;;;;;;;;;;17.74;58.61;97215.47;5040359;28;20369;-62
2021/06/05 23:11:45;;;;;;;;;;;;;;;17.75;58.32;97211.81;5040512;28;20373;-62
2021/06/05 23:14:14;;;;;;;;;;;;;;;17.74;58.59;97215.47;5038945;28;20526;-62
2021/06/05 23:16:40;;;;;;;;;;;;;;;17.74;58.71;97214.63;5037924;28;20365;-62
2021/06/05 23:19:07;;;;;;;;;;;;;;;17.73;58.67;97200.66;5038434;28;19947;-62
2021/06/05 23:21:35;;;;;;;;;;;;;;;17.74;58.34;97207.56;5036185;28;20396;-62
2021/06/05 23:24:01;;;;;;;;;;;;;;;17.73;58.44;97205.13;5043305;28;19929;-62
2021/06/05 23:26:28;;;;;;;;;;;;;;;17.73;58.66;97207.75;5040496;28;20622;-62
2021/06/05 23:28:54;;;;;;;;;;;;;;;17.73;58.59;97215.66;5041147;28;19933;-62
2021/06/05 23:31:21;;;;;;;;;;;;;;;17.73;58.38;97205.13;5039516;28;19929;-62
2021/06/05 23:33:47;;;;;;;;;;;;;;;17.72;58.63;97214.84;5043576;28;19925;-62
2021/06/05 23:36:14;;;;;;;;;;;;;;;17.73;58.46;97207.75;5042783;28;19933;-62
2021/06/05 23:38:42;;;;;;;;;;;;;;;17.73;58.64;97205.13;5038420;28;19928;-62
2021/06/05 23:41:11;;;;;;;;;;;;;;;17.73;58.72;97202.50;5040445;28;19971;-62
2021/06/05 23:43:38;;;;;;;;;;;;;;;17.72;58.65;97203.53;5042866;28;19932;-62
2021/06/05 23:46:05;;;;;;;;;;;;;;;17.73;58.63;97205.13;5044986;28;19945;-61
2021/06/05 23:48:32;;;;;;;;;;;;;;;17.72;58.67;97200.88;5042117;28;19929;-62
2021/06/05 23:50:59;;;;;;;;;;;;;;;17.70;58.76;97207.16;5039573;28;20388;-62
2021/06/05 23:53:27;;;;;;;;;;;;;;;17.70;58.62;97203.72;5042159;28;19925;-62
2021/06/05 23:55:55;;;;;;;;;;;;;;;17.68;58.69;97206.53;5041313;28;19991;-62
2021/06/05 23:58:22;;;;;;;;;;;;;;;17.68;58.57;97205.72;5039292;28;19925;-62
